Terminal Aerodrome Forecast
Issued by NWS

Home | Current Version | Previous Version | Text Only | Print | Product List | Glossary On
Versions: 1 2 3 4 5 6 7 8 9 10 11 12 13 14 15
000
FTUS46 KSGX 252333
TAFONT
TAF
KONT 252333Z 2600/2706 23011G20KT P6SM VCSH SCT035 BKN040
     FM260400 VRB06KT P6SM BKN015
     FM261600 VRB06KT P6SM SCT020
     FM262200 25009KT P6SM SKC
     FM270400 VRB04KT P6SM SCT015=

USA.gov is the U.S. government's official web portal to all federal, state and local government web resources and services.